map of GRR home
GRR - Airport
Location
City:  Grand Rapids, Michigan, United States
Name:Gerald R Ford International Airport
ICAO:KGRR
IATA:GRR
FAA LID:GRR

Details
Type:Airport (Part 139 Class I)
Use:Public/Civil, International (customs landing rights)
Latitude:4252'51"N (42.880833)
Longitude:8531'22"W (-85.522805)
Datum:WGS 1984
Elevation:794 ft (242 m)
Variation:5.76W (WMM2015 magnetic declination)
-0.04 annual change
Runways:3
Longest:10000 × 150 ft (3048 × 45.5 m), paved

Time
Time Zone:UTC-5 (DST-4)
Local Time:

Weather
METAR:KGRR 200953Z 16008KT 10SM CLR 06/02 A3019 RMK AO2 SLP224 T00610022
TAF:KGRR 200540Z 2006/2106 VRB05KT P6SM SKC
FM201500 19009KT P6SM SKC

Related Locations
Nearby:
Farthest:MQZ: 11166 mi / 17970 km
Margaret River [Margaret River Airport], WA, AU

Find:

   beyond  
but within

Other Information
Maps:
Delays:
NOTAMs:
Links:
Sources:

  
flag of United States
flag of Michigan
  

Airport Diagram

Airport diagram for GRR

Airport diagram PDF

Sectional Chart

Flight Planning
at skyvector.com

Satellite Image

Google Maps Satellite view

 

Copyright © 2004-2017 Karl L. Swartz. All rights reserved.
The Great Circle Mapper name and logo are trademarks of the Great Circle Mapper.
All other trademarks mentioned herein belong to their respective owners.
Please see credits for attibutions and further copyright information.

  Follow gcmap on Facebook Follow gcmap on Twitter Follow gcmap on Google+ GCmap on LinkedIn

hCard Microformat

Geo Microformat